Batley, United Kingdom
Current Conditions -  °F | °C
As of 4:20 PM on Thursday 29 Jan 2015 (Local Time) from EGNM Reporting Station
Scattered Clouds Scattered Clouds  
Wind Chill: 21°   Ceiling: Unl
Heat Index: 32°   Visibility: 6mi
Dew Point: 30°   Wind: 16mph
Humidity: 93%   Direction: 280°W
Pressure: 28.73"   Gusts: NA
Location:  53.72°N, 1.63°W
Report Text: EGNM 291620Z 28014KT 9999 FEW008 SCT035TCU M00/M01 Q0973 R14/510195
Loading
Personal Weather Stations






























Interactive Weather Map New forecast layout! Learn more

10-Day Weather Forecast

Advertisements
Track Severe Weather on mobile